עמוד ראשי
METAR-TAF:

METAR-TAF

שדות תעופה :

Fernandina Beach, פלורידה, ארצות הברית

קו רוחב: 30-36-43N, קו אורך: 081-27-40W, גובה: 5מטר

תצפית מזג אוויר נוכחית

הדו"ח נערך לפני 32דקות, בשעה 20:15 UTC
רוח 14קשר מכיוון מזרח/צפון-מזרח
טמפרטורת 29 צלסיוס
לחות 58%
לחץ 1019 hPa
ראות: 16.1קילומטר
עננים פזורים בגובה 3500רגל

METAR: KFHB 172015Z AUTO 07014KT 10SM SCT035 29/20 A3010 RMK AO2

זמן: 16:47 (20:47 UTC)


TAF: חסר

תצפיות ותחזיות מזג אוויר לגבי יותר מ- 4,000 שדות תעופה ברחבי העולם. דוחות METAR ו- TAF.

התחנות הזמינות מסומנות בנקודות צהובות ואדומות על גבי המפה.

העבר את העכבר לנקודה הצבעונית על מנת לראות את שם התחנה.

לאחר מכן, לחץ כדי לראות את תוכן ואת תחזיות מזג האוויר.

כדי לשנות את המפה: לחץ על הכפתורים הירוקים עם הפלוס השחור כדי להתקרב; על הכפתור הירוק עם המקף כדי להתרחק; או בחיצים הירוקים למפות סמוכות.


METAR-TAF: